createdAt,value
2022-09-17T00:01:34.486Z,11.90
2022-09-17T00:04:04.087Z,11.90
2022-09-17T00:06:33.973Z,11.90
2022-09-17T00:09:02.365Z,11.90
2022-09-17T00:11:33.797Z,11.90
2022-09-17T00:14:05.385Z,11.80
2022-09-17T00:16:37.674Z,11.80
2022-09-17T00:19:08.296Z,11.70
2022-09-17T00:21:36.373Z,11.60
2022-09-17T00:24:06.971Z,11.60
2022-09-17T00:26:37.140Z,11.60
2022-09-17T00:29:07.135Z,11.50
2022-09-17T00:31:36.707Z,11.50
2022-09-17T00:34:06.993Z,11.40
2022-09-17T00:36:36.339Z,11.40
2022-09-17T00:39:05.805Z,11.30
2022-09-17T00:41:35.972Z,11.20
2022-09-17T00:44:42.344Z,11.20
2022-09-17T00:47:16.863Z,11.20
2022-09-17T00:49:45.689Z,11.20
2022-09-17T00:52:17.147Z,11.20
2022-09-17T00:54:50.640Z,11.20
2022-09-17T00:57:20.246Z,11.30
2022-09-17T00:59:48.312Z,11.30
2022-09-17T01:02:19.286Z,11.30
2022-09-17T01:04:47.549Z,11.30
2022-09-17T01:07:27.363Z,11.40
2022-09-17T01:10:00.418Z,11.40
2022-09-17T01:12:56.956Z,11.50
2022-09-17T01:15:35.305Z,11.50
2022-09-17T01:18:22.592Z,11.50
2022-09-17T01:21:19.134Z,11.50
2022-09-17T01:24:23.224Z,11.60
2022-09-17T01:27:25.635Z,11.60
2022-09-17T01:30:13.410Z,11.60
2022-09-17T01:32:46.592Z,11.50
2022-09-17T01:35:21.186Z,11.50
2022-09-17T01:37:59.301Z,11.50
2022-09-17T01:40:32.424Z,11.60
2022-09-17T01:43:07.171Z,11.60
2022-09-17T01:45:40.025Z,11.60
2022-09-17T01:48:17.537Z,11.50
2022-09-17T01:50:53.289Z,11.50
2022-09-17T01:53:35.621Z,11.50
2022-09-17T01:56:05.515Z,11.50
2022-09-17T01:58:39.698Z,11.50
2022-09-17T02:01:10.244Z,11.50
2022-09-17T02:03:44.886Z,11.50
2022-09-17T02:06:15.614Z,11.50
2022-09-17T02:08:48.907Z,11.40
2022-09-17T02:11:17.463Z,11.40
2022-09-17T02:13:51.097Z,11.40
2022-09-17T02:16:26.452Z,11.40
2022-09-17T02:19:03.497Z,11.40
2022-09-17T02:21:37.206Z,11.40
2022-09-17T02:24:12.760Z,11.40
2022-09-17T02:26:46.231Z,11.30
2022-09-17T02:29:23.059Z,11.20
2022-09-17T02:31:51.563Z,11.20
2022-09-17T02:34:23.388Z,11.20
2022-09-17T02:36:52.684Z,11.10
2022-09-17T02:39:21.100Z,11.10
2022-09-17T02:41:57.684Z,11.00
2022-09-17T02:44:33.420Z,10.90
2022-09-17T02:47:16.762Z,10.90
2022-09-17T02:50:03.763Z,10.80
2022-09-17T02:52:42.689Z,10.80
2022-09-17T02:55:19.418Z,10.80
2022-09-17T02:57:53.911Z,10.80
2022-09-17T03:00:23.791Z,10.70
2022-09-17T03:02:57.712Z,10.70
2022-09-17T03:05:28.820Z,10.60
2022-09-17T03:07:58.481Z,10.60
2022-09-17T03:10:28.303Z,10.60
2022-09-17T03:12:56.506Z,10.60
2022-09-17T03:15:24.682Z,10.60
2022-09-17T03:17:53.542Z,10.60
2022-09-17T03:20:22.360Z,10.50
2022-09-17T03:22:52.764Z,10.50
2022-09-17T03:25:21.394Z,10.50
2022-09-17T03:27:49.413Z,10.50
2022-09-17T03:30:17.666Z,10.50
2022-09-17T03:32:46.231Z,10.50
2022-09-17T03:35:14.389Z,10.50
2022-09-17T03:37:43.153Z,10.40
2022-09-17T03:40:13.887Z,10.40
2022-09-17T03:42:42.936Z,10.40
2022-09-17T03:45:11.614Z,10.40
2022-09-17T03:47:40.001Z,10.30
2022-09-17T03:50:08.721Z,10.30
2022-09-17T03:52:36.767Z,10.30
2022-09-17T03:55:05.232Z,10.30
2022-09-17T03:57:34.748Z,10.30
2022-09-17T04:00:03.229Z,10.30
2022-09-17T04:02:41.285Z,10.30
2022-09-17T04:05:10.643Z,10.40
2022-09-17T04:07:41.313Z,10.40
2022-09-17T04:10:10.150Z,10.40
2022-09-17T04:12:40.651Z,10.40
2022-09-17T04:15:09.682Z,10.40
2022-09-17T04:17:37.882Z,10.40
2022-09-17T04:20:07.140Z,10.50
2022-09-17T04:22:35.537Z,10.50
2022-09-17T04:25:03.685Z,10.50
2022-09-17T04:27:32.324Z,10.50
2022-09-17T04:30:02.855Z,10.50
2022-09-17T04:32:31.193Z,10.50
2022-09-17T04:35:00.216Z,10.50
2022-09-17T04:37:28.691Z,10.50
2022-09-17T04:39:57.809Z,10.50
2022-09-17T04:42:26.210Z,10.50
2022-09-17T04:44:54.329Z,10.50
2022-09-17T04:47:23.651Z,10.50
2022-09-17T04:49:52.501Z,10.50
2022-09-17T04:52:20.994Z,10.50
2022-09-17T04:54:49.063Z,10.60
2022-09-17T04:57:17.072Z,10.60
2022-09-17T04:59:45.138Z,10.60
2022-09-17T05:02:13.221Z,10.50
2022-09-17T05:04:42.660Z,10.60
2022-09-17T05:07:13.829Z,10.50
2022-09-17T05:09:42.378Z,10.60
2022-09-17T05:12:10.777Z,10.50
2022-09-17T05:14:38.836Z,10.60
2022-09-17T05:17:06.903Z,10.60
2022-09-17T05:19:35.323Z,10.60
2022-09-17T05:22:04.755Z,10.60
2022-09-17T05:24:34.775Z,10.60
2022-09-17T05:27:03.084Z,10.60
2022-09-17T05:29:31.119Z,10.60
2022-09-17T05:31:59.227Z,10.60
2022-09-17T05:34:27.311Z,10.60
2022-09-17T05:36:55.308Z,10.60
2022-09-17T05:39:25.527Z,10.60
2022-09-17T05:41:54.030Z,10.60
2022-09-17T05:44:22.160Z,10.70
2022-09-17T05:46:50.396Z,10.70
2022-09-17T05:49:18.663Z,10.70
2022-09-17T05:51:46.684Z,10.70
2022-09-17T05:54:14.683Z,10.70
2022-09-17T05:56:44.286Z,10.70
2022-09-17T05:59:12.791Z,10.70
2022-09-17T06:01:40.936Z,10.70
2022-09-17T06:04:10.077Z,10.70
2022-09-17T06:06:39.000Z,10.80
2022-09-17T06:09:07.506Z,10.80
2022-09-17T06:11:35.877Z,10.90
2022-09-17T06:14:05.760Z,10.90
2022-09-17T06:16:34.116Z,10.80
2022-09-17T06:19:04.092Z,10.90
2022-09-17T06:21:32.171Z,10.90
2022-09-17T06:24:01.612Z,10.90
2022-09-17T06:26:29.632Z,11.00
2022-09-17T06:28:59.616Z,11.00
2022-09-17T06:31:29.191Z,11.00
2022-09-17T06:33:58.631Z,11.10
2022-09-17T06:36:26.880Z,11.10
2022-09-17T06:38:55.482Z,11.10
2022-09-17T06:41:23.802Z,11.10
2022-09-17T06:43:54.226Z,11.10
2022-09-17T06:46:22.343Z,11.20
2022-09-17T06:48:52.350Z,11.20
2022-09-17T06:51:20.437Z,11.30
2022-09-17T06:53:48.881Z,11.30
2022-09-17T06:56:17.472Z,11.40
2022-09-17T06:58:45.597Z,11.40
2022-09-17T07:01:15.399Z,11.40
2022-09-17T07:03:44.594Z,11.40
2022-09-17T07:06:14.024Z,11.40
2022-09-17T07:08:42.704Z,11.40
2022-09-17T07:11:10.714Z,11.40
2022-09-17T07:13:43.392Z,11.40
2022-09-17T07:16:11.779Z,11.40
2022-09-17T07:18:40.203Z,11.50
2022-09-17T07:21:08.988Z,11.50
2022-09-17T07:23:39.053Z,11.60
2022-09-17T07:26:09.437Z,11.60
2022-09-17T07:28:41.091Z,11.70
2022-09-17T07:31:15.251Z,11.80
2022-09-17T07:33:45.027Z,11.80
2022-09-17T07:36:15.401Z,11.80
2022-09-17T07:38:45.153Z,11.90
2022-09-17T07:41:14.516Z,11.90
2022-09-17T07:43:43.534Z,11.90
2022-09-17T07:46:15.283Z,12.00
2022-09-17T07:48:43.491Z,12.10
2022-09-17T07:51:16.762Z,12.20
2022-09-17T07:53:46.737Z,12.40
2022-09-17T07:56:14.984Z,12.40
2022-09-17T07:58:43.611Z,12.50
2022-09-17T08:01:13.733Z,12.30
2022-09-17T08:03:41.733Z,12.40
2022-09-17T08:06:11.682Z,12.30
2022-09-17T08:08:40.671Z,12.50
2022-09-17T08:11:12.317Z,12.60
2022-09-17T08:13:40.774Z,12.70
2022-09-17T08:16:13.360Z,12.70
2022-09-17T08:18:42.258Z,12.80
2022-09-17T08:21:13.471Z,12.80
2022-09-17T08:23:42.888Z,12.80
2022-09-17T08:26:15.438Z,12.60
2022-09-17T08:28:46.562Z,12.70
2022-09-17T08:31:15.583Z,12.90
2022-09-17T08:33:43.840Z,12.90
2022-09-17T08:36:14.331Z,12.80
2022-09-17T08:38:42.936Z,12.70
2022-09-17T08:41:25.684Z,12.70
2022-09-17T08:44:13.421Z,12.60
2022-09-17T08:46:47.001Z,12.60
2022-09-17T08:49:24.184Z,12.50
2022-09-17T08:52:02.677Z,12.30
2022-09-17T08:54:37.831Z,12.20
2022-09-17T08:57:18.308Z,12.20
2022-09-17T08:59:54.836Z,12.00
2022-09-17T09:02:34.321Z,12.00
2022-09-17T09:05:09.564Z,11.90
2022-09-17T09:07:43.456Z,11.90
2022-09-17T09:10:19.865Z,11.80
2022-09-17T09:12:51.246Z,11.80
2022-09-17T09:15:27.467Z,11.80
2022-09-17T09:17:56.698Z,11.60
2022-09-17T09:20:32.437Z,11.50
2022-09-17T09:23:06.558Z,11.50
2022-09-17T09:25:43.454Z,11.50
2022-09-17T09:28:28.837Z,11.60
2022-09-17T09:31:08.676Z,11.60
2022-09-17T09:33:44.424Z,11.60
2022-09-17T09:36:21.681Z,11.60
2022-09-17T09:38:57.805Z,11.50
2022-09-17T09:41:31.409Z,11.40
2022-09-17T09:44:05.460Z,11.40
2022-09-17T09:47:12.906Z,11.30
2022-09-17T09:50:09.896Z,11.20
2022-09-17T09:52:52.416Z,11.30
2022-09-17T09:55:36.721Z,11.30
2022-09-17T09:58:17.933Z,11.30
2022-09-17T10:00:48.863Z,11.30
2022-09-17T10:03:20.690Z,11.20
2022-09-17T10:06:01.182Z,11.50
2022-09-17T10:08:31.125Z,11.40
2022-09-17T10:11:02.058Z,11.60
2022-09-17T10:13:31.947Z,11.70
2022-09-17T10:16:18.538Z,11.70
2022-09-17T10:18:47.528Z,11.60
2022-09-17T10:21:22.199Z,11.60
2022-09-17T10:23:51.850Z,11.50
2022-09-17T10:26:26.257Z,11.50
2022-09-17T10:28:56.169Z,11.40
2022-09-17T10:31:26.026Z,11.30
2022-09-17T10:33:58.236Z,11.40
2022-09-17T10:36:41.292Z,11.30
2022-09-17T10:39:44.850Z,11.10
2022-09-17T10:42:15.973Z,11.10
2022-09-17T10:44:52.971Z,11.10
2022-09-17T10:47:25.358Z,11.10
2022-09-17T10:49:57.787Z,11.00
2022-09-17T10:52:28.305Z,11.10
2022-09-17T10:55:20.422Z,11.00
2022-09-17T10:58:04.281Z,11.10
2022-09-17T11:00:52.341Z,11.00
2022-09-17T11:04:00.017Z,10.90
2022-09-17T11:06:53.588Z,11.10
2022-09-17T11:09:30.884Z,11.10
2022-09-17T11:12:17.145Z,11.20
2022-09-17T11:14:51.906Z,11.50
2022-09-17T11:18:04.138Z,11.60
2022-09-17T11:20:58.443Z,11.60
2022-09-17T11:23:43.522Z,11.60
2022-09-17T11:26:28.011Z,11.80
2022-09-17T11:29:04.878Z,11.90
2022-09-17T11:31:47.987Z,11.90
2022-09-17T11:34:26.945Z,11.90
2022-09-17T11:37:03.809Z,12.10
2022-09-17T11:39:37.889Z,12.10
2022-09-17T11:42:11.767Z,12.20
2022-09-17T11:44:46.561Z,12.30
2022-09-17T11:47:20.319Z,12.30
2022-09-17T11:49:52.757Z,12.30
2022-09-17T11:52:25.278Z,12.40
2022-09-17T11:54:59.220Z,12.60
2022-09-17T11:57:32.874Z,12.80
2022-09-17T12:00:06.721Z,12.90
2022-09-17T12:02:50.312Z,12.70
2022-09-17T12:05:21.936Z,12.70
2022-09-17T12:07:57.748Z,12.60
2022-09-17T12:10:49.617Z,12.60
2022-09-17T12:13:28.013Z,12.30
2022-09-17T12:16:09.398Z,12.40
2022-09-17T12:18:49.361Z,12.60
2022-09-17T12:21:22.173Z,12.80
2022-09-17T12:23:56.493Z,12.90
2022-09-17T12:26:34.434Z,13.20
2022-09-17T12:29:12.400Z,13.40
2022-09-17T12:31:49.635Z,13.50
2022-09-17T12:34:31.850Z,13.30
2022-09-17T12:37:10.286Z,13.40
2022-09-17T12:40:03.422Z,13.40
2022-09-17T12:42:54.214Z,13.10
2022-09-17T12:45:38.843Z,12.80
2022-09-17T12:48:30.211Z,12.80
2022-09-17T12:51:12.220Z,12.60
2022-09-17T12:53:45.954Z,12.50
2022-09-17T12:56:27.905Z,12.50
2022-09-17T12:59:11.455Z,12.60
2022-09-17T13:01:47.381Z,12.60
2022-09-17T13:05:04.460Z,12.90
2022-09-17T13:07:51.796Z,13.00
2022-09-17T13:10:46.354Z,13.10
2022-09-17T13:13:30.022Z,13.20
2022-09-17T13:16:13.283Z,13.40
2022-09-17T13:19:15.078Z,13.50
2022-09-17T13:21:49.744Z,13.60
2022-09-17T13:24:19.959Z,13.50
2022-09-17T13:26:48.291Z,13.50
2022-09-17T13:32:10.213Z,13.40
2022-09-17T13:34:38.331Z,13.20
2022-09-17T13:37:07.324Z,13.20
2022-09-17T13:39:41.674Z,13.20
2022-09-17T13:42:14.502Z,13.30
2022-09-17T13:44:45.503Z,13.30
2022-09-17T13:47:19.960Z,13.40
2022-09-17T13:49:52.175Z,13.40
2022-09-17T13:52:37.250Z,13.50
2022-09-17T13:55:08.447Z,13.50
2022-09-17T13:57:49.854Z,13.50
2022-09-17T14:00:49.272Z,13.40
2022-09-17T14:03:57.116Z,13.40
2022-09-17T14:06:53.782Z,13.70
2022-09-17T14:09:45.752Z,13.80
2022-09-17T14:12:51.846Z,13.90
2022-09-17T14:15:53.264Z,13.90
2022-09-17T14:18:52.698Z,13.90
2022-09-17T14:21:28.444Z,13.80
2022-09-17T14:23:59.316Z,13.80
2022-09-17T14:26:51.350Z,13.80
2022-09-17T14:29:32.542Z,13.70
2022-09-17T14:32:01.087Z,13.70
2022-09-17T14:34:31.271Z,13.60
2022-09-17T14:37:01.085Z,13.60
2022-09-17T14:39:37.034Z,13.50
2022-09-17T14:42:08.308Z,13.50
2022-09-17T14:44:36.615Z,13.40
2022-09-17T14:47:08.633Z,13.30
2022-09-17T14:49:38.390Z,13.20
2022-09-17T14:52:25.398Z,13.10
2022-09-17T14:55:12.359Z,13.00
2022-09-17T14:57:40.422Z,12.90
2022-09-17T15:00:19.741Z,12.80
2022-09-17T15:02:55.768Z,12.70
2022-09-17T15:05:27.235Z,12.50
2022-09-17T15:08:10.167Z,12.30
2022-09-17T15:10:50.473Z,12.30
2022-09-17T15:13:21.638Z,12.20
2022-09-17T15:16:00.516Z,12.20
2022-09-17T15:18:49.524Z,12.10
2022-09-17T15:21:35.402Z,12.10
2022-09-17T15:24:15.991Z,12.10
2022-09-17T15:26:46.208Z,12.00
2022-09-17T15:29:15.621Z,11.90
2022-09-17T15:31:43.969Z,11.80
2022-09-17T15:34:12.823Z,11.80
2022-09-17T15:36:40.981Z,11.80
2022-09-17T15:39:31.920Z,11.80
2022-09-17T15:41:59.988Z,11.90
2022-09-17T15:44:31.051Z,11.90
2022-09-17T15:47:33.291Z,11.90
2022-09-17T15:50:16.494Z,11.90
2022-09-17T15:52:44.999Z,11.90
2022-09-17T15:55:36.769Z,11.90
2022-09-17T15:58:07.113Z,11.80
2022-09-17T16:00:35.770Z,11.90
2022-09-17T16:04:05.417Z,11.90
2022-09-17T16:06:39.797Z,11.80
2022-09-17T16:09:43.026Z,11.90
2022-09-17T16:12:15.257Z,11.80
2022-09-17T16:14:48.239Z,11.90
2022-09-17T16:17:35.294Z,11.80
2022-09-17T16:20:10.439Z,11.80
2022-09-17T16:22:38.585Z,11.70
2022-09-17T16:25:07.690Z,11.70
2022-09-17T16:27:45.853Z,11.50
2022-09-17T16:30:17.612Z,11.40
2022-09-17T16:32:46.167Z,11.40
2022-09-17T16:35:17.474Z,11.40
2022-09-17T16:37:48.656Z,11.30
2022-09-17T16:40:16.935Z,11.30
2022-09-17T16:42:47.840Z,11.20
2022-09-17T16:45:16.383Z,11.10
2022-09-17T16:47:45.071Z,11.20
2022-09-17T16:50:16.180Z,11.10
2022-09-17T16:52:44.795Z,11.10
2022-09-17T16:55:15.095Z,11.10
2022-09-17T16:57:43.353Z,11.00
2022-09-17T17:00:17.249Z,11.10
2022-09-17T17:02:47.285Z,11.00
2022-09-17T17:05:16.155Z,11.10
2022-09-17T17:07:44.276Z,11.00
2022-09-17T17:10:12.315Z,10.90
2022-09-17T17:12:40.911Z,10.90
2022-09-17T17:15:10.444Z,10.90
2022-09-17T17:17:39.861Z,10.90
2022-09-17T17:20:10.456Z,10.90
2022-09-17T17:22:40.232Z,10.80
2022-09-17T17:25:09.601Z,10.70
2022-09-17T17:27:38.208Z,10.70
2022-09-17T17:30:08.644Z,10.70
2022-09-17T17:32:38.987Z,10.60
2022-09-17T17:35:08.463Z,10.60
2022-09-17T17:37:36.693Z,10.50
2022-09-17T17:40:08.757Z,10.50
2022-09-17T17:42:38.266Z,10.50
2022-09-17T17:45:08.553Z,10.40
2022-09-17T17:47:39.023Z,10.50
2022-09-17T17:50:08.613Z,10.50
2022-09-17T17:52:39.020Z,10.40
2022-09-17T17:55:08.118Z,10.40
2022-09-17T17:57:36.586Z,10.40
2022-09-17T18:00:05.342Z,10.30
2022-09-17T18:02:41.939Z,10.30
2022-09-17T18:05:12.049Z,10.30
2022-09-17T18:07:40.098Z,10.30
2022-09-17T18:10:08.746Z,10.20
2022-09-17T18:12:37.088Z,10.30
2022-09-17T18:15:05.899Z,10.20
2022-09-17T18:17:36.564Z,10.20
2022-09-17T18:20:06.659Z,10.20
2022-09-17T18:22:34.788Z,10.20
2022-09-17T18:25:03.251Z,10.20
2022-09-17T18:27:31.264Z,10.20
2022-09-17T18:29:59.350Z,10.20
2022-09-17T18:32:27.386Z,10.20
2022-09-17T18:34:55.407Z,10.20
2022-09-17T18:37:24.859Z,10.20
2022-09-17T18:39:58.524Z,10.20
2022-09-17T18:42:27.165Z,10.20
2022-09-17T18:44:56.269Z,10.20
2022-09-17T18:47:24.303Z,10.20
2022-09-17T18:49:52.780Z,10.20
2022-09-17T18:52:21.022Z,10.20
2022-09-17T18:54:51.892Z,10.20
2022-09-17T18:57:20.328Z,10.20
2022-09-17T18:59:48.395Z,10.10
2022-09-17T19:02:16.637Z,10.20
2022-09-17T19:04:44.967Z,10.20
2022-09-17T19:07:13.002Z,10.10
2022-09-17T19:09:41.042Z,10.10
2022-09-17T19:12:10.954Z,10.10
2022-09-17T19:14:38.989Z,10.10
2022-09-17T19:17:07.486Z,10.00
2022-09-17T19:19:35.669Z,9.90
2022-09-17T19:22:03.717Z,9.90
2022-09-17T19:24:33.507Z,10.00
2022-09-17T19:27:01.665Z,10.00
2022-09-17T19:29:31.395Z,10.00
2022-09-17T19:31:59.353Z,10.00
2022-09-17T19:34:27.637Z,10.00
2022-09-17T19:36:55.558Z,10.00
2022-09-17T19:39:23.658Z,10.10
2022-09-17T19:41:52.278Z,10.00
2022-09-17T19:44:20.437Z,10.10
2022-09-17T19:46:51.482Z,10.20
2022-09-17T19:49:20.128Z,10.20
2022-09-17T19:51:48.102Z,10.20
2022-09-17T19:54:16.137Z,10.20
2022-09-17T19:56:44.086Z,10.20
2022-09-17T19:59:12.824Z,10.20
2022-09-17T20:01:40.909Z,10.30
2022-09-17T20:04:10.598Z,10.30
2022-09-17T20:06:38.879Z,10.30
2022-09-17T20:09:06.898Z,10.20
2022-09-17T20:11:35.039Z,10.30
2022-09-17T20:14:06.569Z,10.40
2022-09-17T20:16:36.349Z,10.30
2022-09-17T20:19:06.114Z,10.30
2022-09-17T20:21:35.894Z,10.30
2022-09-17T20:24:07.197Z,10.20
2022-09-17T20:26:35.925Z,10.30
2022-09-17T20:29:05.160Z,10.20
2022-09-17T20:31:33.786Z,10.20
2022-09-17T20:34:03.903Z,10.20
2022-09-17T20:36:33.507Z,10.10
2022-09-17T20:39:14.271Z,10.10
2022-09-17T20:41:45.223Z,10.10
2022-09-17T20:44:13.675Z,10.00
2022-09-17T20:46:41.722Z,10.10
2022-09-17T20:49:10.451Z,10.00
2022-09-17T20:51:38.472Z,10.00
2022-09-17T20:54:08.688Z,10.00
2022-09-17T20:56:37.810Z,10.10
2022-09-17T20:59:14.326Z,10.10
2022-09-17T21:01:45.431Z,10.10
2022-09-17T21:04:19.427Z,10.10
2022-09-17T21:06:48.534Z,10.10
2022-09-17T21:09:17.857Z,10.10
2022-09-17T21:11:47.706Z,10.10
2022-09-17T21:14:17.446Z,10.10
2022-09-17T21:16:46.641Z,10.20
2022-09-17T21:19:16.149Z,10.10
2022-09-17T21:21:44.421Z,10.30
2022-09-17T21:24:12.536Z,10.20
2022-09-17T21:26:41.933Z,10.20
2022-09-17T21:29:10.009Z,10.30
2022-09-17T21:31:39.397Z,10.30
2022-09-17T21:34:09.507Z,10.30
2022-09-17T21:36:39.447Z,10.30
2022-09-17T21:39:11.278Z,10.30
2022-09-17T21:41:42.506Z,10.40
2022-09-17T21:44:13.355Z,10.40
2022-09-17T21:46:42.972Z,10.40
2022-09-17T21:49:11.337Z,10.40
2022-09-17T21:51:41.525Z,10.40
2022-09-17T21:54:11.963Z,10.40
2022-09-17T21:56:41.105Z,10.40
2022-09-17T21:59:11.093Z,10.30
2022-09-17T22:01:43.522Z,10.30
2022-09-17T22:04:13.188Z,10.30
2022-09-17T22:06:42.921Z,10.30
2022-09-17T22:09:16.048Z,10.30
2022-09-17T22:11:44.199Z,10.30
2022-09-17T22:14:13.475Z,10.20
2022-09-17T22:16:45.976Z,10.20
2022-09-17T22:19:17.135Z,10.10
2022-09-17T22:21:47.358Z,10.10
2022-09-17T22:24:17.091Z,10.10
2022-09-17T22:26:46.901Z,10.10
2022-09-17T22:29:17.312Z,10.10
2022-09-17T22:31:48.924Z,10.10
2022-09-17T22:34:18.671Z,10.10
2022-09-17T22:36:47.168Z,10.10
2022-09-17T22:39:15.271Z,10.00
2022-09-17T22:41:45.676Z,10.10
2022-09-17T22:44:16.768Z,10.00
2022-09-17T22:46:47.406Z,10.10
2022-09-17T22:49:16.442Z,10.10
2022-09-17T22:51:46.543Z,10.00
2022-09-17T22:54:16.255Z,10.10
2022-09-17T22:56:44.859Z,10.10
2022-09-17T22:59:13.265Z,10.10
2022-09-17T23:01:42.336Z,10.10
2022-09-17T23:04:11.811Z,10.10
2022-09-17T23:06:42.446Z,10.20
2022-09-17T23:09:10.606Z,10.10
2022-09-17T23:11:40.154Z,10.10
2022-09-17T23:14:10.313Z,10.10
2022-09-17T23:16:40.471Z,10.10
2022-09-17T23:19:08.961Z,10.10
2022-09-17T23:21:39.150Z,10.10
2022-09-17T23:24:07.642Z,10.10
2022-09-17T23:26:35.745Z,10.10
2022-09-17T23:29:05.583Z,10.10
2022-09-17T23:31:35.793Z,10.20
2022-09-17T23:34:06.059Z,10.20
2022-09-17T23:36:36.004Z,10.20
2022-09-17T23:39:07.415Z,10.20
2022-09-17T23:41:37.113Z,10.10
2022-09-17T23:44:13.710Z,10.10
2022-09-17T23:46:43.147Z,10.20
2022-09-17T23:49:12.950Z,10.10
2022-09-17T23:51:41.069Z,10.10
2022-09-17T23:54:11.265Z,10.20
2022-09-17T23:56:40.115Z,10.10
2022-09-17T23:59:08.526Z,10.10
